Time;durP1;ratioP1;P1;durP2;ratioP2;P2;SDS_P1;SDS_P2;PMS_P1;PMS_P2;Temp;Humidity;BMP_temperature;BMP_pressure;BME280_temperature;BME280_humidity;BME280_pressure;Samples;Min_cycle;Max_cycle;Signal;HPM_P1;HPM_P2
2021/12/08 00:00:20;;;;;;;4.32;2.45;;;;;;;0.88;100.00;99167.56;6121424;29;19927;-91
2021/12/08 00:03:24;;;;;;;3.58;2.10;;;;;;;0.91;100.00;99169.09;6132525;29;20127;-91
2021/12/08 00:06:40;;;;;;;3.45;2.58;;;;;;;0.92;100.00;99158.84;6148537;29;20115;-91
2021/12/08 00:13:04;;;;;;;2.72;2.00;;;;;;;0.93;100.00;99150.25;6135131;29;20059;-91
2021/12/08 00:16:11;;;;;;;3.45;1.77;;;;;;;0.93;100.00;99149.44;6134035;29;20123;-92
2021/12/08 00:19:13;;;;;;;7.05;2.08;;;;;;;0.81;100.00;99139.09;6137441;29;20072;-91
2021/12/08 00:22:15;;;;;;;4.22;2.63;;;;;;;0.73;100.00;99143.84;6135918;29;20102;-92
2021/12/08 00:25:17;;;;;;;5.80;3.20;;;;;;;0.66;100.00;99134.13;6133691;29;20048;-91
2021/12/08 00:28:20;;;;;;;4.47;2.78;;;;;;;0.56;100.00;99129.56;6123083;29;20133;-91
2021/12/08 00:31:22;;;;;;;8.90;2.85;;;;;;;0.62;100.00;99139.41;6138733;29;20067;-91
2021/12/08 00:34:25;;;;;;;7.07;2.65;;;;;;;0.60;100.00;99153.94;6134782;29;20080;-92
2021/12/08 00:37:28;;;;;;;6.30;2.90;;;;;;;0.61;100.00;99144.56;6141921;29;20052;-92
2021/12/08 00:40:30;;;;;;;5.68;2.80;;;;;;;0.62;100.00;99141.09;6138503;29;20067;-92
2021/12/08 00:43:33;;;;;;;6.22;2.70;;;;;;;0.66;100.00;99131.56;6145687;29;20044;-91
2021/12/08 00:46:48;;;;;;;7.53;2.90;;;;;;;0.68;100.00;99120.38;6136122;29;20054;-92
2021/12/08 00:49:50;;;;;;;6.70;2.80;;;;;;;0.69;100.00;99100.81;6138996;29;20048;-92
2021/12/08 00:52:52;;;;;;;7.35;3.70;;;;;;;0.71;100.00;99097.28;6135180;29;20040;-92
2021/12/08 00:55:54;;;;;;;6.30;2.83;;;;;;;0.70;100.00;99097.38;6137164;29;20048;-91
2021/12/08 00:58:57;;;;;;;4.28;2.67;;;;;;;0.71;100.00;99089.63;6131586;23;20071;-92
2021/12/08 01:02:05;;;;;;;4.50;2.72;;;;;;;0.83;100.00;99088.06;6086974;29;20037;-92
2021/12/08 01:05:10;;;;;;;5.45;2.83;;;;;;;1.06;100.00;99084.88;6089023;29;20064;-91
2021/12/08 01:08:12;;;;;;;4.20;2.80;;;;;;;1.06;100.00;99081.53;6103213;29;20037;-92
2021/12/08 01:11:17;;;;;;;5.55;2.60;;;;;;;1.19;100.00;99072.22;6105431;23;20045;-93
2021/12/08 01:14:19;;;;;;;3.60;2.90;;;;;;;1.16;100.00;99059.63;6484774;23;20075;-93
2021/12/08 01:17:21;;;;;;;5.10;3.25;;;;;;;1.24;100.00;99067.63;6143980;29;20036;-92
2021/12/08 01:24:58;;;;;;;3.53;2.30;;;;;;;1.21;100.00;99061.91;7470713;23;20018;31
2021/12/08 01:28:00;;;;;;;5.55;2.13;;;;;;;1.22;100.00;99046.53;6481058;23;20048;-93
2021/12/08 01:31:04;;;;;;;5.07;2.22;;;;;;;1.31;100.00;99029.81;6889426;23;20031;-93
2021/12/08 01:34:16;;;;;;;3.85;2.28;;;;;;;1.38;100.00;99027.69;6701345;23;20341;31
2021/12/08 01:37:22;;;;;;;3.45;2.10;;;;;;;1.33;100.00;99012.69;6860211;23;20018;-94
2021/12/08 01:40:25;;;;;;;3.05;2.42;;;;;;;1.35;100.00;98999.84;6930862;23;20054;-92
2021/12/08 01:47:23;;;;;;;4.43;2.20;;;;;;;1.22;100.00;98998.09;6951386;23;20858;31
2021/12/08 02:08:42;;;;;;;6.10;2.40;;;;;;;1.58;100.00;99013.63;6922493;23;20027;-93
2021/12/08 02:23:46;;;;;;;4.45;2.63;;;;;;;1.48;100.00;98993.81;7499228;23;20018;31
2021/12/08 02:49:01;;;;;;;4.45;2.25;;;;;;;1.45;100.00;98963.44;6683776;23;20034;31
2021/12/08 02:55:18;;;;;;;2.95;2.30;;;;;;;1.50;100.00;98955.50;6572849;23;20039;-92
2021/12/08 03:02:13;;;;;;;5.55;2.40;;;;;;;1.55;100.00;98950.09;6505747;23;20031;-92
2021/12/08 03:05:18;;;;;;;5.53;2.35;;;;;;;1.55;100.00;98940.69;6763900;23;21029;31
2021/12/08 03:16:09;;;;;;;4.75;2.80;;;;;;;1.41;100.00;98923.75;6742366;23;20027;31
2021/12/08 03:26:35;;;;;;;5.43;2.55;;;;;;;1.36;100.00;98927.53;7218895;23;21405;31
2021/12/08 03:33:29;;;;;;;3.53;2.03;;;;;;;1.39;100.00;98924.78;6497629;23;20032;-93
2021/12/08 03:36:31;;;;;;;4.10;2.40;;;;;;;1.35;100.00;98924.19;6489262;23;20222;-93
2021/12/08 03:39:35;;;;;;;3.22;2.38;;;;;;;1.23;100.00;98918.16;6239246;23;20311;-93
2021/12/08 03:42:39;;;;;;;5.63;2.90;;;;;;;1.22;100.00;98908.91;6451378;23;20056;-93
2021/12/08 03:45:46;;;;;;;4.68;2.47;;;;;;;1.28;100.00;98912.75;6104021;29;20101;-93
2021/12/08 03:48:50;;;;;;;5.32;3.28;;;;;;;1.28;100.00;98912.75;6101441;29;20057;-93
2021/12/08 03:51:53;;;;;;;8.40;2.80;;;;;;;1.25;100.00;98912.97;6112326;29;20076;-93
2021/12/08 03:54:55;;;;;;;4.50;2.75;;;;;;;1.25;100.00;98920.63;6093638;29;20052;-93
2021/12/08 03:57:57;;;;;;;4.03;2.10;;;;;;;1.20;100.00;98933.66;6102470;29;20052;-93
2021/12/08 04:01:07;;;;;;;3.85;2.25;;;;;;;1.27;100.00;98934.91;6100279;29;20112;-93
2021/12/08 04:04:10;;;;;;;3.88;2.20;;;;;;;1.23;100.00;98936.00;6100642;29;20060;-93
2021/12/08 04:07:15;;;;;;;4.85;2.40;;;;;;;1.30;100.00;98936.44;6109173;29;20051;-93
2021/12/08 04:10:20;;;;;;;4.22;2.50;;;;;;;1.32;100.00;98939.69;6108455;29;20056;-93
2021/12/08 04:13:28;;;;;;;3.30;2.53;;;;;;;1.26;100.00;98940.91;6083586;29;20388;-93
2021/12/08 04:16:43;;;;;;;5.60;2.75;;;;;;;1.31;100.00;98935.50;6104957;29;20041;-93
2021/12/08 04:19:47;;;;;;;2.42;2.08;;;;;;;1.33;100.00;98928.56;6106959;29;20092;-93
2021/12/08 04:22:53;;;;;;;3.92;2.00;;;;;;;1.30;100.00;98936.44;6106490;29;20033;-93
2021/12/08 04:25:59;;;;;;;3.92;3.40;;;;;;;1.29;100.00;98938.16;6106739;29;20031;-93
2021/12/08 04:29:19;;;;;;;4.20;2.15;;;;;;;1.28;100.00;98940.81;6093498;29;20059;-93
2021/12/08 04:43:16;;;;;;;5.60;2.47;;;;;;;1.24;100.00;98931.72;6250557;28;20514;-92
2021/12/08 05:04:25;;;;;;;5.93;2.92;;;;;;;1.13;100.00;98932.44;6217434;28;20057;-92
2021/12/08 05:07:55;;;;;;;6.65;2.92;;;;;;;1.19;100.00;98943.94;6253934;28;20038;-91
2021/12/08 05:10:53;;;;;;;4.68;2.40;;;;;;;1.24;100.00;98942.75;6252273;28;20545;-91
2021/12/08 05:13:59;;;;;;;5.03;2.53;;;;;;;1.24;100.00;98950.41;6252555;28;20026;-91
2021/12/08 05:17:08;;;;;;;5.25;2.42;;;;;;;1.22;100.00;98942.03;6257435;28;20102;-91
2021/12/08 05:20:35;;;;;;;5.25;3.05;;;;;;;1.32;100.00;98947.34;6243132;28;20045;-91
2021/12/08 05:23:50;;;;;;;3.40;2.58;;;;;;;1.26;100.00;98935.78;6259793;28;20024;-91
2021/12/08 05:27:01;;;;;;;5.40;2.65;;;;;;;1.19;100.00;98936.31;6268083;28;20057;-92
2021/12/08 05:30:11;;;;;;;4.07;2.80;;;;;;;1.22;100.00;98936.94;6250226;28;20033;-92
2021/12/08 05:37:30;;;;;;;3.55;2.70;;;;;;;1.27;100.00;98932.34;6829541;23;20324;31
2021/12/08 05:47:49;;;;;;;6.03;2.72;;;;;;;1.28;100.00;98933.97;6316057;23;20076;-92
2021/12/08 05:54:45;;;;;;;5.68;3.00;;;;;;;1.31;100.00;98930.41;6199587;23;20030;-93
2021/12/08 06:05:11;;;;;;;4.78;3.13;;;;;;;1.23;100.00;98941.09;6453520;23;20104;-93
2021/12/08 06:08:13;;;;;;;8.20;4.38;;;;;;;1.21;100.00;98935.28;6090836;29;20055;-93
2021/12/08 06:15:02;;;;;;;5.20;2.30;;;;;;;1.07;100.00;98954.03;6217181;23;20040;31
2021/12/08 06:18:04;;;;;;;7.00;2.22;;;;;;;1.16;100.00;98946.72;6080460;29;20286;-93
2021/12/08 06:24:49;;;;;;;4.93;2.55;;;;;;;1.26;100.00;98952.81;6397309;23;20044;31
2021/12/08 06:28:14;;;;;;;4.57;2.33;;;;;;;1.21;100.00;98957.41;6877826;23;20038;31
2021/12/08 06:34:57;;;;;;;4.75;2.60;;;;;;;1.14;100.00;98964.63;6957159;23;20037;-93
2021/12/08 06:48:46;;;;;;;4.72;2.70;;;;;;;1.22;100.00;98961.63;7618942;22;2532665;-92
2021/12/08 06:52:01;;;;;;;5.25;2.80;;;;;;;1.25;100.00;98961.41;7672308;22;20023;31
2021/12/08 07:02:48;;;;;;;4.90;2.65;;;;;;;1.31;100.00;98958.44;7702255;22;20067;-93
2021/12/08 07:25:04;;;;;;;3.37;2.50;;;;;;;1.21;100.00;99005.84;6842601;23;20054;31
2021/12/08 07:39:47;;;;;;;3.30;2.50;;;;;;;1.35;100.00;99002.41;6872824;23;20066;-92
2021/12/08 07:42:54;;;;;;;3.80;2.58;;;;;;;1.33;100.00;98991.47;6024829;29;20086;-92
2021/12/08 07:46:03;;;;;;;4.47;2.97;;;;;;;1.39;100.00;99002.09;6024012;29;20135;-92
2021/12/08 07:49:10;;;;;;;9.65;3.05;;;;;;;1.43;100.00;99000.97;6022389;29;20038;-92
2021/12/08 07:52:26;;;;;;;5.20;3.03;;;;;;;1.42;100.00;99001.91;6021049;29;20050;-92
2021/12/08 07:55:37;;;;;;;3.85;2.67;;;;;;;1.39;100.00;99024.22;6012769;29;20053;-92
2021/12/08 07:58:42;;;;;;;4.80;2.95;;;;;;;1.41;100.00;99019.81;6022976;29;20057;-92
2021/12/08 08:01:48;;;;;;;4.30;2.83;;;;;;;1.49;100.00;99009.94;6008741;29;20046;-92
2021/12/08 08:04:52;;;;;;;3.58;2.80;;;;;;;1.53;100.00;99001.19;6014164;29;20089;-92
2021/12/08 08:07:56;;;;;;;6.22;2.92;;;;;;;1.58;100.00;99003.44;6015196;29;20049;-92
2021/12/08 08:11:06;;;;;;;4.80;2.90;;;;;;;1.56;100.00;98995.88;6022499;29;20058;-92
2021/12/08 08:14:12;;;;;;;3.65;2.80;;;;;;;1.59;100.00;98995.69;6011209;29;20041;-92
2021/12/08 08:17:18;;;;;;;6.43;2.95;;;;;;;1.70;100.00;99005.16;6000056;29;20057;-92
2021/12/08 08:20:25;;;;;;;6.65;3.20;;;;;;;1.69;100.00;99008.63;6003622;29;20137;-92
2021/12/08 08:23:29;;;;;;;6.38;2.97;;;;;;;1.76;100.00;99012.38;6003241;29;20086;-92
2021/12/08 08:26:31;;;;;;;8.73;4.07;;;;;;;1.77;100.00;99021.69;6007416;29;20591;-92
2021/12/08 08:29:34;;;;;;;5.72;3.22;;;;;;;1.76;100.00;99029.44;6006776;29;20530;-92
2021/12/08 08:32:39;;;;;;;6.30;3.10;;;;;;;1.88;100.00;99036.28;5995736;29;20061;-92
2021/12/08 08:35:55;;;;;;;6.90;3.78;;;;;;;1.97;100.00;99025.44;6006103;29;20045;-92
2021/12/08 08:39:07;;;;;;;6.80;3.00;;;;;;;2.10;100.00;99015.22;6001964;29;20046;-92
2021/12/08 08:42:16;;;;;;;3.55;2.75;;;;;;;2.15;100.00;99016.53;5998526;29;20077;-92
2021/12/08 08:45:24;;;;;;;4.35;3.42;;;;;;;2.20;100.00;98993.25;6007129;29;20050;-91
2021/12/08 08:48:33;;;;;;;4.15;3.00;;;;;;;2.32;100.00;99015.38;6006086;29;20077;-91
2021/12/08 08:52:10;;;;;;;5.13;3.35;;;;;;;2.56;100.00;99028.19;6006501;29;20061;-91
2021/12/08 08:55:42;;;;;;;8.35;3.28;;;;;;;2.77;100.00;99025.84;5984825;29;20081;-91
2021/12/08 08:58:49;;;;;;;5.95;3.30;;;;;;;2.82;100.00;99028.06;5993943;29;20527;-92
2021/12/08 09:01:54;;;;;;;4.68;3.20;;;;;;;2.82;100.00;99034.94;6004732;29;20062;-91
2021/12/08 09:05:04;;;;;;;5.20;3.58;;;;;;;2.87;100.00;99036.22;5992312;29;20840;-91
2021/12/08 09:08:08;;;;;;;6.00;3.67;;;;;;;2.87;100.00;99031.13;6003275;29;20416;-92
2021/12/08 09:11:16;;;;;;;8.43;3.88;;;;;;;2.84;100.00;99023.69;5999999;29;20501;-92
2021/12/08 09:14:36;;;;;;;5.75;3.35;;;;;;;2.79;100.00;99036.78;5996983;29;20054;-91
2021/12/08 09:18:18;;;;;;;6.20;3.47;;;;;;;2.87;100.00;99043.91;6005948;29;20042;-92
2021/12/08 09:21:55;;;;;;;5.47;3.90;;;;;;;2.91;100.00;99052.19;6002655;29;20061;-91
2021/12/08 09:25:25;;;;;;;7.95;4.03;;;;;;;2.95;100.00;99048.47;5995801;29;20050;-91
2021/12/08 09:28:36;;;;;;;9.43;3.60;;;;;;;3.02;100.00;99049.66;6001440;29;20439;-91
2021/12/08 09:31:44;;;;;;;6.68;3.60;;;;;;;3.12;100.00;99053.19;5997354;29;20375;-92
2021/12/08 09:34:57;;;;;;;5.68;3.50;;;;;;;3.27;100.00;99065.78;6001201;29;20046;-92
2021/12/08 09:38:08;;;;;;;5.88;3.35;;;;;;;3.34;100.00;99065.22;5998641;29;20417;-91
2021/12/08 09:41:26;;;;;;;;;;;;;;;3.35;100.00;99068.59;5999643;29;20049;-92
2021/12/08 09:44:32;;;;;;;7.85;3.60;;;;;;;3.36;100.00;99075.38;6002209;29;19977;-91
2021/12/08 09:47:34;;;;;;;5.38;3.42;;;;;;;3.44;100.00;99078.97;6001509;29;20145;-91
2021/12/08 09:50:38;;;;;;;4.53;3.42;;;;;;;3.56;100.00;99081.59;5994684;29;20057;-92
2021/12/08 09:53:43;;;;;;;5.68;3.70;;;;;;;3.51;100.00;99058.09;5999737;29;20109;-92
2021/12/08 09:56:52;;;;;;;6.17;3.77;;;;;;;3.51;100.00;99055.53;5992292;29;20041;-91
2021/12/08 09:59:55;;;;;;;4.85;3.85;;;;;;;3.59;100.00;99045.53;5988195;29;20053;-91
2021/12/08 10:02:59;;;;;;;4.60;3.28;;;;;;;3.57;100.00;99061.00;5987390;29;20085;-91
2021/12/08 10:06:02;;;;;;;6.88;3.47;;;;;;;3.57;100.00;99060.19;5991934;29;20501;-91
2021/12/08 10:09:05;;;;;;;11.18;4.25;;;;;;;3.58;100.00;99049.03;5992902;29;20054;-92
2021/12/08 10:12:07;;;;;;;4.53;3.45;;;;;;;3.62;100.00;99064.03;5992909;29;20042;-92
2021/12/08 10:15:12;;;;;;;5.20;3.35;;;;;;;3.66;100.00;99060.31;5992893;29;20185;-92
2021/12/08 10:18:16;;;;;;;7.95;3.15;;;;;;;3.80;100.00;99058.47;5997859;29;20461;-91
2021/12/08 10:21:19;;;;;;;5.65;2.63;;;;;;;3.92;100.00;99055.00;5988219;29;20631;-92
2021/12/08 10:24:29;;;;;;;5.82;3.25;;;;;;;3.97;100.00;99052.91;5991607;29;20048;-91
2021/12/08 10:27:34;;;;;;;8.07;3.55;;;;;;;3.93;100.00;99045.59;5981169;29;20042;-91
2021/12/08 10:30:51;;;;;;;5.07;2.95;;;;;;;3.97;100.00;99039.28;5983739;29;20054;-91
2021/12/08 10:37:20;;;;;;;5.10;3.20;;;;;;;3.88;100.00;99049.31;5988463;29;20057;-92
2021/12/08 10:40:22;;;;;;;5.57;3.10;;;;;;;3.93;100.00;99045.59;5999484;29;20095;-92
2021/12/08 10:43:25;;;;;;;4.38;3.50;;;;;;;3.98;100.00;99049.44;6001007;29;20179;-92
2021/12/08 10:46:38;;;;;;;4.50;3.22;;;;;;;4.04;100.00;99059.19;5996612;29;20527;-92
2021/12/08 10:56:24;;;;;;;5.60;3.20;;;;;;;4.43;100.00;99069.91;5989499;29;20058;-91
2021/12/08 11:00:07;;;;;;;4.95;3.20;;;;;;;4.49;100.00;99056.59;5989051;29;20410;-91
2021/12/08 11:03:14;;;;;;;5.65;3.10;;;;;;;4.62;100.00;99068.47;5992118;29;20074;-91
2021/12/08 11:06:17;;;;;;;5.53;3.42;;;;;;;4.71;100.00;99060.88;5996498;29;20053;-91
2021/12/08 11:09:20;;;;;;;6.28;3.20;;;;;;;4.78;100.00;99053.53;6001770;29;20042;-91
2021/12/08 11:12:38;;;;;;;5.65;2.80;;;;;;;4.80;100.00;99046.53;6001855;29;20106;-92
2021/12/08 11:15:41;;;;;;;3.78;3.15;;;;;;;4.75;100.00;99048.66;6000484;29;20109;-92
2021/12/08 11:19:16;;;;;;;4.18;2.95;;;;;;;4.74;100.00;99064.94;6000289;29;20411;-92
2021/12/08 11:22:29;;;;;;;5.80;3.15;;;;;;;4.74;100.00;99064.94;5993988;29;20765;-92
2021/12/08 11:25:51;;;;;;;4.45;2.72;;;;;;;4.75;100.00;99064.03;5995300;29;20058;-91
2021/12/08 11:29:09;;;;;;;5.68;3.10;;;;;;;4.72;100.00;99070.22;6001222;29;20407;-92
2021/12/08 11:32:18;;;;;;;4.43;3.00;;;;;;;4.86;100.00;99063.19;5992909;29;20038;-91
2021/12/08 11:35:21;;;;;;;5.47;3.17;;;;;;;4.88;100.00;99064.69;6002139;29;20057;-92
2021/12/08 11:38:26;;;;;;;6.60;2.80;;;;;;;4.92;100.00;99078.09;5997604;29;20058;-91
2021/12/08 11:41:43;;;;;;;5.32;3.00;;;;;;;4.97;100.00;99076.78;5993476;29;20066;-92
2021/12/08 11:44:54;;;;;;;7.03;2.53;;;;;;;5.03;100.00;99074.69;5991236;29;20050;-91
2021/12/08 11:47:56;;;;;;;4.22;2.67;;;;;;;5.01;100.00;99073.97;5987389;29;20078;-92
2021/12/08 11:51:12;;;;;;;7.05;2.97;;;;;;;4.96;100.00;99072.56;5992251;29;20070;-91
2021/12/08 11:54:46;;;;;;;3.60;2.38;;;;;;;4.94;100.00;99059.09;6001042;29;20528;-91
2021/12/08 11:57:57;;;;;;;2.78;2.22;;;;;;;5.01;100.00;99067.09;5994511;29;20041;-91
2021/12/08 12:01:02;;;;;;;5.03;2.72;;;;;;;4.86;100.00;99061.44;5990584;29;20054;-91
2021/12/08 12:04:06;;;;;;;3.17;2.10;;;;;;;4.84;100.00;99057.34;5989870;29;20042;-91
2021/12/08 12:07:13;;;;;;;3.22;2.60;;;;;;;4.86;100.00;99060.63;5989755;29;20050;-91
2021/12/08 12:10:18;;;;;;;5.68;2.63;;;;;;;4.95;100.00;99063.28;5998106;29;20572;-92
2021/12/08 12:13:25;;;;;;;;;;;;;;;4.97;100.00;99074.22;5986381;29;20493;-92
2021/12/08 12:16:29;;;;;;;5.28;2.55;;;;;;;4.89;100.00;99079.13;5993234;29;19944;-91
2021/12/08 12:20:01;;;;;;;4.32;2.42;;;;;;;4.74;100.00;99077.75;5993309;29;20214;-91
2021/12/08 12:23:21;;;;;;;2.58;2.22;;;;;;;4.53;100.00;99075.94;6003767;29;20038;-92
2021/12/08 12:26:39;;;;;;;2.97;2.47;;;;;;;4.32;100.00;99090.38;6008902;29;20085;-91
2021/12/08 12:29:51;;;;;;;5.53;2.58;;;;;;;4.15;100.00;99083.16;5995054;29;20057;-92
2021/12/08 12:32:55;;;;;;;3.95;2.13;;;;;;;4.07;100.00;99076.91;5999539;29;20496;-92
2021/12/08 12:35:57;;;;;;;3.42;2.30;;;;;;;4.12;100.00;99063.72;6006159;29;20077;-92
2021/12/08 12:39:20;;;;;;;4.30;2.55;;;;;;;4.18;100.00;99055.59;6004383;29;20057;-91
2021/12/08 12:42:24;;;;;;;5.15;2.95;;;;;;;4.30;100.00;99048.72;5974593;29;20647;-92
2021/12/08 12:45:40;;;;;;;4.30;2.33;;;;;;;4.47;100.00;99052.53;6005297;29;20054;-92
2021/12/08 12:48:49;;;;;;;4.38;2.20;;;;;;;4.48;100.00;99049.88;6005629;29;20157;-92
2021/12/08 12:52:07;;;;;;;5.17;2.67;;;;;;;4.44;100.00;99058.72;6003720;29;20489;-92
2021/12/08 12:55:12;;;;;;;3.58;2.45;;;;;;;4.37;100.00;99057.56;6005249;29;20050;-92
2021/12/08 12:58:17;;;;;;;5.10;2.60;;;;;;;4.38;100.00;99059.19;6005198;29;20258;-92
2021/12/08 13:01:30;;;;;;;3.53;2.22;;;;;;;4.35;100.00;99058.59;6004741;29;20041;-92
2021/12/08 13:04:35;;;;;;;4.55;2.20;;;;;;;4.31;100.00;99061.41;5992798;29;20105;-92
2021/12/08 13:07:50;;;;;;;3.92;2.35;;;;;;;4.29;100.00;99063.25;6005670;29;20054;-92
2021/12/08 13:10:55;;;;;;;4.88;2.30;;;;;;;4.33;100.00;99063.88;6002469;29;20512;-91
2021/12/08 13:13:57;;;;;;;2.90;2.58;;;;;;;4.35;100.00;99069.69;6004736;29;20053;-91
2021/12/08 13:17:19;;;;;;;4.20;2.28;;;;;;;4.34;100.00;99069.78;6004559;29;20057;-91
2021/12/08 13:20:24;;;;;;;;;;;;;;;4.25;100.00;99066.19;6005200;29;20145;-91
2021/12/08 13:23:29;;;;;;;4.07;2.15;;;;;;;4.17;100.00;99064.19;5996027;29;19929;-92
2021/12/08 13:26:59;;;;;;;2.90;2.20;;;;;;;4.08;100.00;99059.78;6004299;29;20106;-92
2021/12/08 13:30:14;;;;;;;5.78;2.38;;;;;;;4.01;100.00;99067.13;5990782;29;20588;-92
2021/12/08 13:33:27;;;;;;;5.30;2.35;;;;;;;3.97;100.00;99072.56;5991921;29;20054;-92
2021/12/08 13:36:49;;;;;;;5.32;1.90;;;;;;;3.91;100.00;99076.41;6004202;29;20416;-92
2021/12/08 13:39:53;;;;;;;2.75;2.28;;;;;;;3.92;100.00;99077.22;5992887;29;20042;-91
2021/12/08 13:43:39;;;;;;;6.63;2.78;;;;;;;3.92;100.00;99075.47;6003705;29;20507;-92
2021/12/08 13:46:44;;;;;;;13.07;6.05;;;;;;;3.89;100.00;99086.75;6002706;29;20050;-92
2021/12/08 13:49:50;;;;;;;4.68;2.60;;;;;;;3.91;100.00;99073.84;6003278;29;20045;-91
2021/12/08 13:52:55;;;;;;;5.53;2.40;;;;;;;3.93;100.00;99074.56;5986588;29;20053;-92
2021/12/08 13:56:00;;;;;;;2.90;2.40;;;;;;;3.90;100.00;99069.69;5991419;29;20056;-91
2021/12/08 13:59:02;;;;;;;5.65;2.65;;;;;;;3.87;100.00;99065.56;6001747;29;20046;-92
2021/12/08 14:02:26;;;;;;;5.25;2.70;;;;;;;3.72;100.00;99068.47;6003430;29;20522;-92
2021/12/08 14:05:52;;;;;;;3.40;2.33;;;;;;;3.65;100.00;99065.53;6001956;29;20048;-91
2021/12/08 14:08:54;;;;;;;4.03;2.65;;;;;;;3.53;100.00;99063.88;5994912;29;20485;-91
2021/12/08 14:11:56;;;;;;;6.07;2.83;;;;;;;3.42;100.00;99074.91;6003770;29;20809;-92
2021/12/08 14:14:59;;;;;;;3.85;2.53;;;;;;;3.35;100.00;99071.97;5997450;29;20046;-91
2021/12/08 14:18:13;;;;;;;5.03;3.17;;;;;;;3.29;100.00;99081.84;5995133;29;20056;-92
2021/12/08 14:21:23;;;;;;;4.63;3.05;;;;;;;3.26;100.00;99087.19;6001992;29;20057;-92
2021/12/08 14:24:25;;;;;;;5.38;3.10;;;;;;;3.22;100.00;99104.47;6002164;29;20050;-92
2021/12/08 14:27:31;;;;;;;5.38;2.70;;;;;;;3.07;100.00;99098.72;6003927;29;20050;-92
2021/12/08 14:30:59;;;;;;;5.15;2.88;;;;;;;3.04;100.00;99101.50;5991374;29;20087;-92
2021/12/08 14:34:22;;;;;;;5.78;2.97;;;;;;;3.05;100.00;99112.53;5989895;29;20060;-92
2021/12/08 14:37:24;;;;;;;7.07;3.20;;;;;;;2.92;100.00;99098.06;5992196;29;20054;-92
2021/12/08 14:40:36;;;;;;;5.68;3.13;;;;;;;2.84;100.00;99115.66;6002167;29;20129;-92
2021/12/08 14:43:39;;;;;;;8.50;3.70;;;;;;;2.72;100.00;99114.78;6003344;29;20064;-91
2021/12/08 14:46:43;;;;;;;6.72;3.58;;;;;;;2.62;100.00;99113.78;5989204;29;20058;-92
2021/12/08 14:50:01;;;;;;;5.15;3.58;;;;;;;2.53;100.00;99116.97;5997425;29;20056;-91
2021/12/08 14:53:12;;;;;;;4.68;3.72;;;;;;;2.43;100.00;99110.84;5995520;29;20045;-91
2021/12/08 14:56:17;;;;;;;6.47;3.75;;;;;;;2.35;100.00;99121.59;6001900;29;20048;-91
2021/12/08 14:59:25;;;;;;;5.22;3.72;;;;;;;2.42;100.00;99125.34;5998954;29;20050;-91
2021/12/08 15:02:50;;;;;;;6.93;3.88;;;;;;;2.26;100.00;99122.19;5991048;29;20796;-92
2021/12/08 15:05:53;;;;;;;5.50;3.70;;;;;;;2.11;100.00;99122.31;5994951;29;20062;-92
2021/12/08 15:08:57;;;;;;;7.53;4.43;;;;;;;2.03;100.00;99118.63;6001429;29;20046;-92
2021/12/08 15:12:01;;;;;;;6.97;3.65;;;;;;;1.93;100.00;99120.97;5990243;29;20043;-91
2021/12/08 15:15:17;;;;;;;6.55;3.90;;;;;;;1.94;100.00;99120.88;6002224;29;20038;-92
2021/12/08 15:18:20;;;;;;;5.40;3.60;;;;;;;2.14;100.00;99113.66;5992581;29;20507;-92
2021/12/08 15:21:38;;;;;;;4.85;3.50;;;;;;;2.06;100.00;99116.72;5988778;29;20050;-92
2021/12/08 15:24:41;;;;;;;4.68;3.70;;;;;;;2.01;100.00;99112.81;5993146;29;20408;-92
2021/12/08 15:27:46;;;;;;;5.72;3.85;;;;;;;1.94;100.00;99104.75;5994430;29;20056;-91
2021/12/08 15:30:51;;;;;;;8.68;4.80;;;;;;;1.83;100.00;99105.44;5996863;29;20135;-91
2021/12/08 15:34:20;;;;;;;8.30;3.95;;;;;;;1.82;100.00;99115.78;5993542;29;20499;-91
2021/12/08 15:37:31;;;;;;;6.57;4.18;;;;;;;1.73;100.00;99114.63;6002474;29;20060;-92
2021/12/08 15:40:41;;;;;;;7.68;4.30;;;;;;;1.69;100.00;99110.63;5994180;29;20054;-91
2021/12/08 15:43:46;;;;;;;6.85;4.90;;;;;;;1.67;100.00;99118.41;6010361;29;20133;-91
2021/12/08 15:46:55;;;;;;;6.78;4.60;;;;;;;1.79;100.00;99119.34;6003717;29;20426;-91
2021/12/08 15:49:58;;;;;;;6.78;4.70;;;;;;;1.69;100.00;99118.28;5999623;29;20568;-92
2021/12/08 15:53:04;;;;;;;9.25;4.53;;;;;;;1.61;100.00;99128.97;5999463;29;20038;-91
2021/12/08 15:56:16;;;;;;;6.88;4.53;;;;;;;1.55;100.00;99124.28;5999454;29;20054;-91
2021/12/08 15:59:27;;;;;;;6.43;4.28;;;;;;;1.49;100.00;99119.56;5998589;29;20046;-91
2021/12/08 16:02:31;;;;;;;8.38;4.53;;;;;;;1.43;100.00;99125.88;5998365;29;20357;-91
2021/12/08 16:05:34;;;;;;;8.18;5.40;;;;;;;1.37;100.00;99125.47;5999453;29;20069;-91
2021/12/08 16:08:36;;;;;;;8.52;4.90;;;;;;;1.29;100.00;99131.88;5993828;29;20049;-91
2021/12/08 16:11:42;;;;;;;11.80;6.70;;;;;;;1.34;100.00;99134.13;6000759;29;20081;-91
2021/12/08 16:15:02;;;;;;;11.40;6.40;;;;;;;1.28;100.00;99131.97;5996812;29;20042;-91
2021/12/08 16:18:05;;;;;;;10.63;6.03;;;;;;;1.24;100.00;99140.72;5997545;29;20068;-91
2021/12/08 16:21:07;;;;;;;13.70;5.55;;;;;;;1.20;100.00;99134.19;5998780;29;20121;-91
2021/12/08 16:24:10;;;;;;;8.32;5.55;;;;;;;1.22;100.00;99142.56;5990150;29;20080;-91
2021/12/08 16:27:24;;;;;;;8.27;5.43;;;;;;;1.19;100.00;99146.13;5995771;29;20420;-91
2021/12/08 16:30:26;;;;;;;11.43;5.90;;;;;;;1.21;100.00;99153.66;5990481;29;20050;-91
2021/12/08 16:33:31;;;;;;;9.07;5.32;;;;;;;1.19;100.00;99161.41;5994548;29;20057;-91
2021/12/08 16:36:37;;;;;;;9.15;5.65;;;;;;;1.20;100.00;99160.47;5993984;29;20042;-91
2021/12/08 16:39:57;;;;;;;10.63;5.38;;;;;;;1.23;100.00;99167.13;5997053;29;20049;-91
2021/12/08 16:43:04;;;;;;;9.15;5.72;;;;;;;1.22;100.00;99178.25;5996701;29;20042;-91
2021/12/08 16:46:06;;;;;;;10.35;6.60;;;;;;;1.21;100.00;99182.50;5996696;29;20496;-91
2021/12/08 16:49:13;;;;;;;9.45;6.43;;;;;;;1.20;100.00;99196.16;5995363;29;20134;-91
2021/12/08 16:52:16;;;;;;;10.45;6.82;;;;;;;1.20;100.00;99187.72;6005126;29;20072;-91
2021/12/08 16:55:22;;;;;;;11.40;5.82;;;;;;;1.21;100.00;99196.97;6002173;29;20117;-91
2021/12/08 16:58:27;;;;;;;9.77;6.05;;;;;;;1.25;100.00;99199.25;6004547;29;20077;-91
2021/12/08 17:01:33;;;;;;;11.50;6.22;;;;;;;1.37;100.00;99195.13;5987189;29;20045;-91
2021/12/08 17:04:40;;;;;;;10.40;6.13;;;;;;;1.36;100.00;99193.47;6000014;29;20504;-91
2021/12/08 17:07:57;;;;;;;12.90;6.80;;;;;;;1.47;100.00;99195.38;5996696;29;20125;-91
2021/12/08 17:10:59;;;;;;;10.88;6.03;;;;;;;1.48;100.00;99195.25;5998811;29;20575;-91
2021/12/08 17:14:03;;;;;;;10.18;6.10;;;;;;;1.45;100.00;99203.09;5992034;29;20121;-91
2021/12/08 17:17:12;;;;;;;12.23;7.40;;;;;;;1.37;100.00;99207.88;6000314;29;20057;-91
2021/12/08 17:20:21;;;;;;;7.90;6.38;;;;;;;1.35;100.00;99211.44;6006787;29;20049;-92
2021/12/08 17:23:27;;;;;;;10.80;6.95;;;;;;;1.29;100.00;99213.44;5996164;29;20080;-91
2021/12/08 17:26:42;;;;;;;10.02;7.00;;;;;;;1.27;100.00;99209.34;6001040;29;20561;-91
2021/12/08 17:29:47;;;;;;;13.55;7.32;;;;;;;1.26;100.00;99211.06;6009992;29;20046;-91
2021/12/08 17:32:50;;;;;;;11.65;7.07;;;;;;;1.26;100.00;99211.06;5999880;29;20064;-91
2021/12/08 17:35:53;;;;;;;15.52;7.03;;;;;;;1.30;100.00;99209.16;5991337;29;20117;-91
2021/12/08 17:38:58;;;;;;;9.45;6.45;;;;;;;1.34;100.00;99209.78;5994035;29;20042;-91
2021/12/08 17:42:02;;;;;;;13.10;6.68;;;;;;;1.29;100.00;99208.34;5998835;29;20282;-92
2021/12/08 17:45:05;;;;;;;11.10;6.72;;;;;;;1.28;100.00;99218.63;5996266;29;20046;-91
2021/12/08 17:48:08;;;;;;;14.85;6.90;;;;;;;1.29;100.00;99212.59;5993057;29;20038;-91
2021/12/08 17:51:11;;;;;;;12.02;7.38;;;;;;;1.27;100.00;99214.47;5993684;29;20046;-91
2021/12/08 17:54:14;;;;;;;13.77;6.65;;;;;;;1.24;100.00;99215.47;5994319;29;20076;-91
2021/12/08 17:57:18;;;;;;;11.50;6.60;;;;;;;1.31;100.00;99231.19;5997719;29;20187;-91
2021/12/08 18:00:37;;;;;;;10.18;6.43;;;;;;;1.23;100.00;99226.56;5998389;29;20041;-91
2021/12/08 18:03:39;;;;;;;11.07;7.00;;;;;;;1.23;100.00;99224.00;6002223;29;20050;-91
2021/12/08 18:06:42;;;;;;;9.95;5.88;;;;;;;1.27;100.00;99230.56;5989385;29;20079;-91
2021/12/08 18:09:44;;;;;;;11.20;6.60;;;;;;;1.21;100.00;99225.81;5994591;29;20065;-91
2021/12/08 18:12:47;;;;;;;11.85;6.88;;;;;;;1.26;100.00;99239.09;5984381;29;20046;-91
2021/12/08 18:15:51;;;;;;;11.38;6.07;;;;;;;1.28;100.00;99232.19;5994058;29;20054;-91
2021/12/08 18:18:55;;;;;;;8.98;5.72;;;;;;;1.33;100.00;99239.56;5993820;29;20045;-91